Alger, OH

7:20 AM EST on January 29, 2015 (GMT -0500)
Ada | Change Station
CLOSE
Current Station
Personal Weather Station
Location: Ada, OH
Elevation: 912 ft
Nearby Weather Stations
Active Advisory: Freezing Rain Advisory

Elev 912 ft 40.82 °N, 83.86 °W | Updated 10 seconds ago

Overcast
Overcast
34.3 °F
Feels Like 24 °F
N
18.0
Wind Variable Wind from SSW
Gusts 23.0 mph

Today
High -- | Low -- °F
--% Chance of Precip.
Yesterday
High -- | Low -- °F
Precip. -- in
7:48 AM 5:49 PM
Waxing Gibbous, 74% visible
Pressure 29.84 in
Visibility 10.0 miles
Clouds Overcast 7500 ft
Windchill 24 °F
Dew Point 29 °F
Humidity 80%
Rainfall 0.00 in
Snow Depth Not available.
UV 0 out of 12
Pollen .10 out of 12
Air Quality Not available.
Flu Activity Not available.
METAR KAOH 291153Z AUTO 18016G26KT 10SM OVC075 03/M04 A2981 RMK AO2 PK WND 17028/1054 RAE30UPB30E33 SLP104 P0000 60000 T00281039 10028 21017 56041

More Conditions Fewer Conditions

Pressure 29.84 in
Visibility 10.0 miles
Clouds Overcast 7500 ft
Windchill 24 °F
Dew Point 29 °F
Humidity 80%
Rainfall 0.00 in
Snow Depth Not available.
UV 0 out of 12
Pollen .10 out of 12
Air Quality Not available.
Flu Activity Not available.
METAR KAOH 291153Z AUTO 18016G26KT 10SM OVC075 03/M04 A2981 RMK AO2 PK WND 17028/1054 RAE30UPB30E33 SLP104 P0000 60000 T00281039 10028 21017 56041

More Conditions Fewer Conditions

10-Day Weather Forecast

Almanac

Astronomy

Jan. 29, 2015 Rise Set
Actual Time
Civil Twilight
Nautical Twilight
Astronomical Twilight
Moon
Length of Visible Light
Length of Day
Tomorrow will be .
, % of the Moon is Illuminated

Today's Extremes

State Highs State Lows

Community

WunderPhotos

Upload Photos

1,791,420 photos uploaded!

WunderBlogs® & News

Nearby

Air Quality

  Air Quality AQ Index Pollutant
Not available.

Snow Depth

Station Depth Elevation

Earthquake Activity

City Distance Mag. Time & Date
Minimum magnitude displayed is 2.5.

Coastal Water Temperatures

Place Temperature

Nearby Weather Stations